Airfield :
LOGIN :

Register | Disclaimer

   EN    FR    IT 

 










Legend :    VFR   Marginal VFR   IFR   Intensive IFR   Very Intensive IFR
Visi :
Ceiling :
>= 8 km
>= 3000ft
5 to 8 km
1000 to 3000 ft
1500m to 5 km
500 to 1000 ft
800 to 1500m
200 to 500 ft
< 800m
< 200 ft
Symbols :   Thunderstorms  Fog  Heavy snow  Heavy precipitations  Wind > 20 kt
SIGMETs :     Misc.  Thunderstorms  Icing  Turbulence  Mountain Waves  Volcanic Ashes







- Airport Elevation : 1046 ft
- IATA code : NUE


EDDN - Nuremberg

CURRENT METAR :
  • 160820Z 32003KT 280V340 4400 -RASN BR BKN004 01/00 Q1006 R28/29//95 BECMG BKN008

EXPIRED METARs :
  • 160750Z 32002KT 4200 -SN BR BKN005 01/00 Q1006 R28/29//95 TEMPO BKN011
  • 160720Z 29003KT 5000 -SN SCT005 BKN011 BKN022 01/00 Q1005 R28/29//95 TEMPO BKN008
  • 160650Z 29001KT 5000 -SN FEW005 SCT011 BKN022 01/00 Q1005 R28/29//95 TEMPO 3000 -SHSN BKN013TCU
  • 160620Z 25002KT 7000 -SN FEW003 BKN011 BKN021 01/00 Q1004 R28/29//95 TEMPO 3000 -SHSN SCT030TCU
  • 160550Z VRB02KT 9000 -SN SCT011 BKN021 00/00 Q1004 R28/29//95 TEMPO BKN013

TAF AMD TAF EDDN
Valid from the 16 at 08:00 until the 17 at 06:00 UTC


160820Z 1608/1706 VRB02KT 6000 SCT005 BKN010
TEMPO 1608/1612 3000 -SN BR BKN004
TEMPO 1612/1616 29007KT SCT007 BKN015
TEMPO 1616/1706 4000 -SN BKN009
PROB30
TEMPO 1616/1618 1200 SHSN VV004 BKN010CB
No reported NOTAMs for that airfield.



MET'MAP, your aeronautical weather chart ! - Copyright ORBIFLY December 2007 - Disclaimer

ORBIFLY MET'MAP TEAM :

Programming & Development : Alexandra Zaïnal
Concept & Development : Baudouin d'Aumeries
Co-Development & Prog : Marc-Olivier Méhu
Technical & hardware support : Manuel Goepfert

Contact : metmap@orbifly.com




SOURCES & CREDITS :

   NOAA